Wellston, Missouri
Current Conditions -  °F | °C
As of 9:51 PM on Wednesday 28 Jan 2015 (Local Time) from KSTL Reporting Station
Broken Clouds Broken Clouds  
Wind Chill: 43°   Ceiling: 15000
Heat Index: 47°   Visibility: 10mi
Dew Point: 33°   Wind: 8mph
Humidity: 59%   Direction: 180°S
Pressure: 29.86"   Gusts: NA
Location:  38.6807°N, 90.3068°W
Report Text: KSTL 290351Z 18007KT 10SM SCT110 BKN150 08/01 A2986 RMK AO2 SLP118 T00830006
Loading
Personal Weather Stations






























Interactive Weather Map New forecast layout! Learn more

10-Day Weather Forecast

Advertisements
Track Severe Weather on mobile